createdAt,value
2018-11-10T00:00:58.117Z,8.80
2018-11-10T00:03:26.318Z,8.80
2018-11-10T00:05:54.687Z,8.80
2018-11-10T00:08:23.710Z,8.80
2018-11-10T00:10:51.714Z,8.80
2018-11-10T00:13:19.887Z,8.80
2018-11-10T00:15:48.143Z,8.80
2018-11-10T00:18:16.674Z,8.80
2018-11-10T00:20:45.086Z,8.80
2018-11-10T00:23:13.708Z,8.80
2018-11-10T00:25:43.562Z,8.80
2018-11-10T00:28:12.157Z,8.70
2018-11-10T00:30:41.050Z,8.70
2018-11-10T00:33:09.505Z,8.70
2018-11-10T00:35:38.290Z,8.70
2018-11-10T00:38:07.142Z,8.60
2018-11-10T00:40:35.538Z,8.60
2018-11-10T00:43:03.749Z,8.60
2018-11-10T00:45:33.557Z,8.60
2018-11-10T00:48:02.119Z,8.50
2018-11-10T00:50:30.525Z,8.50
2018-11-10T00:52:59.246Z,8.50
2018-11-10T00:55:28.126Z,8.50
2018-11-10T00:57:56.246Z,8.50
2018-11-10T01:00:24.858Z,8.50
2018-11-10T01:02:54.614Z,8.50
2018-11-10T01:05:22.823Z,8.50
2018-11-10T01:07:52.014Z,8.50
2018-11-10T01:10:20.497Z,8.50
2018-11-10T01:12:48.818Z,8.50
2018-11-10T01:15:17.538Z,8.50
2018-11-10T01:17:46.397Z,8.50
2018-11-10T01:20:15.085Z,8.50
2018-11-10T01:22:43.620Z,8.50
2018-11-10T01:25:12.485Z,8.40
2018-11-10T01:27:42.486Z,8.40
2018-11-10T01:30:13.259Z,8.40
2018-11-10T01:32:41.757Z,8.50
2018-11-10T01:35:10.219Z,8.40
2018-11-10T01:37:38.761Z,8.40
2018-11-10T01:40:08.652Z,8.40
2018-11-10T01:42:38.027Z,8.40
2018-11-10T01:45:08.670Z,8.40
2018-11-10T01:47:37.026Z,8.40
2018-11-10T01:50:06.875Z,8.40
2018-11-10T01:52:35.549Z,8.40
2018-11-10T01:55:04.471Z,8.40
2018-11-10T01:57:32.958Z,8.50
2018-11-10T02:00:01.757Z,8.40
2018-11-10T02:02:30.373Z,8.50
2018-11-10T02:04:58.664Z,8.40
2018-11-10T02:07:27.817Z,8.50
2018-11-10T02:09:56.294Z,8.40
2018-11-10T02:12:24.744Z,8.40
2018-11-10T02:14:53.097Z,8.40
2018-11-10T02:17:21.437Z,8.40
2018-11-10T02:19:49.801Z,8.40
2018-11-10T02:22:17.905Z,8.40
2018-11-10T02:24:46.453Z,8.40
2018-11-10T02:27:22.436Z,8.30
2018-11-10T02:29:52.295Z,8.30
2018-11-10T02:32:20.956Z,8.30
2018-11-10T02:34:49.760Z,8.30
2018-11-10T02:37:18.177Z,8.20
2018-11-10T02:42:45.761Z,8.10
2018-11-10T02:45:14.845Z,8.10
2018-11-10T02:47:43.962Z,8.00
2018-11-10T02:50:12.750Z,8.00
2018-11-10T02:52:41.291Z,8.00
2018-11-10T02:55:11.398Z,7.90
2018-11-10T02:57:41.334Z,7.80
2018-11-10T03:00:10.986Z,7.80
2018-11-10T03:02:39.707Z,7.80
2018-11-10T03:05:08.613Z,7.70
2018-11-10T03:07:37.711Z,7.70
2018-11-10T03:10:08.201Z,7.70
2018-11-10T03:12:36.749Z,7.60
2018-11-10T03:15:05.806Z,7.10
2018-11-10T03:17:34.261Z,7.70
2018-11-10T03:20:02.582Z,7.70
2018-11-10T03:22:30.758Z,7.70
2018-11-10T03:25:29.730Z,7.70
2018-11-10T03:27:58.061Z,7.70
2018-11-10T03:30:26.180Z,7.70
2018-11-10T03:32:54.793Z,7.70
2018-11-10T03:35:23.822Z,7.70
2018-11-10T03:37:53.349Z,7.60
2018-11-10T03:40:22.144Z,7.60
2018-11-10T03:42:51.093Z,7.60
2018-11-10T03:45:19.666Z,7.60
2018-11-10T03:47:48.256Z,7.60
2018-11-10T03:50:17.193Z,7.60
2018-11-10T03:52:45.779Z,7.70
2018-11-10T03:55:14.022Z,7.80
2018-11-10T03:57:42.143Z,7.90
2018-11-10T04:00:12.191Z,7.90
2018-11-10T04:06:14.129Z,7.90
2018-11-10T04:08:42.708Z,8.00
2018-11-10T04:11:12.222Z,8.00
2018-11-10T04:13:41.130Z,8.00
2018-11-10T04:16:10.277Z,8.10
2018-11-10T04:18:39.146Z,8.10
2018-11-10T04:21:07.277Z,8.20
2018-11-10T04:23:35.460Z,8.10
2018-11-10T04:26:04.178Z,8.20
2018-11-10T04:28:32.302Z,8.20
2018-11-10T04:31:00.515Z,8.20
2018-11-10T04:33:29.269Z,9.30
2018-11-10T04:35:58.037Z,8.30
2018-11-10T04:38:27.126Z,8.30
2018-11-10T04:40:55.959Z,8.30
2018-11-10T04:43:25.857Z,8.30
2018-11-10T04:45:55.430Z,8.40
2018-11-10T04:48:23.953Z,8.40
2018-11-10T04:50:53.117Z,8.40
2018-11-10T04:53:22.024Z,8.40
2018-11-10T04:55:50.230Z,8.40
2018-11-10T04:58:19.745Z,9.00
2018-11-10T05:00:48.610Z,8.50
2018-11-10T05:03:17.503Z,8.50
2018-11-10T05:05:45.778Z,8.40
2018-11-10T05:08:14.224Z,8.40
2018-11-10T05:10:43.791Z,8.50
2018-11-10T05:13:13.188Z,8.50
2018-11-10T05:15:41.640Z,8.50
2018-11-10T05:18:11.824Z,8.50
2018-11-10T05:20:39.906Z,8.50
2018-11-10T05:23:08.009Z,8.50
2018-11-10T05:25:36.594Z,8.60
2018-11-10T05:28:05.617Z,8.60
2018-11-10T05:30:35.241Z,8.60
2018-11-10T05:33:04.725Z,8.60
2018-11-10T05:35:33.054Z,8.60
2018-11-10T05:38:01.688Z,8.60
2018-11-10T05:40:29.869Z,8.60
2018-11-10T05:42:58.002Z,8.60
2018-11-10T05:45:26.820Z,8.70
2018-11-10T05:47:55.609Z,8.70
2018-11-10T05:50:23.669Z,8.70
2018-11-10T05:52:52.401Z,8.70
2018-11-10T05:55:21.530Z,8.70
2018-11-10T05:57:49.947Z,8.60
2018-11-10T06:00:19.610Z,8.60
2018-11-10T06:02:48.838Z,8.60
2018-11-10T06:05:17.689Z,8.60
2018-11-10T06:07:46.765Z,8.60
2018-11-10T06:10:15.955Z,8.60
2018-11-10T06:12:44.165Z,8.60
2018-11-10T06:15:13.150Z,8.70
2018-11-10T06:17:41.569Z,8.60
2018-11-10T06:20:11.303Z,8.60
2018-11-10T06:22:40.268Z,8.70
2018-11-10T06:25:10.738Z,8.60
2018-11-10T06:27:40.401Z,8.60
2018-11-10T06:30:11.063Z,8.60
2018-11-10T06:32:40.209Z,8.70
2018-11-10T06:35:10.269Z,8.60
2018-11-10T06:37:40.289Z,8.60
2018-11-10T06:40:10.414Z,8.70
2018-11-10T06:42:39.846Z,8.60
2018-11-10T06:45:09.765Z,8.60
2018-11-10T06:47:38.625Z,8.60
2018-11-10T06:50:09.769Z,8.50
2018-11-10T06:52:38.375Z,8.50
2018-11-10T06:55:07.398Z,8.50
2018-11-10T06:57:36.129Z,8.50
2018-11-10T07:00:04.558Z,8.50
2018-11-10T07:02:33.555Z,8.50
2018-11-10T07:05:01.647Z,8.50
2018-11-10T07:07:30.505Z,8.50
2018-11-10T07:09:58.637Z,8.50
2018-11-10T07:12:27.673Z,8.60
2018-11-10T07:14:56.526Z,8.50
2018-11-10T07:17:24.878Z,8.50
2018-11-10T07:19:53.485Z,8.50
2018-11-10T07:22:22.347Z,8.50
2018-11-10T07:24:50.747Z,8.60
2018-11-10T07:27:19.181Z,9.60
2018-11-10T07:29:48.379Z,8.60
2018-11-10T07:32:16.661Z,8.70
2018-11-10T07:34:44.785Z,8.70
2018-11-10T07:37:13.719Z,8.70
2018-11-10T07:39:42.918Z,8.70
2018-11-10T07:42:11.546Z,8.70
2018-11-10T07:44:40.246Z,8.70
2018-11-10T07:47:09.329Z,8.80
2018-11-10T07:49:38.765Z,8.80
2018-11-10T07:52:08.758Z,8.80
2018-11-10T07:54:38.193Z,8.80
2018-11-10T07:57:06.695Z,8.90
2018-11-10T07:59:35.330Z,8.90
2018-11-10T08:02:06.205Z,9.00
2018-11-10T08:04:34.891Z,9.00
2018-11-10T08:07:03.483Z,9.00
2018-11-10T08:09:32.565Z,9.10
2018-11-10T08:12:00.787Z,9.10
2018-11-10T08:14:28.885Z,9.20
2018-11-10T08:16:57.155Z,9.30
2018-11-10T08:19:26.831Z,9.30
2018-11-10T08:21:55.710Z,9.30
2018-11-10T08:24:24.017Z,9.30
2018-11-10T08:26:52.340Z,9.30
2018-11-10T08:29:20.691Z,9.40
2018-11-10T08:31:48.961Z,9.50
2018-11-10T08:34:17.733Z,9.40
2018-11-10T08:36:46.265Z,9.50
2018-11-10T08:39:14.426Z,9.50
2018-11-10T08:41:42.594Z,9.60
2018-11-10T08:44:11.654Z,9.70
2018-11-10T08:46:40.610Z,9.80
2018-11-10T08:49:09.678Z,9.80
2018-11-10T08:51:38.122Z,9.90
2018-11-10T08:54:07.174Z,10.00
2018-11-10T08:56:35.970Z,10.00
2018-11-10T08:59:04.767Z,10.10
2018-11-10T09:01:33.622Z,10.10
2018-11-10T09:04:01.802Z,10.10
2018-11-10T09:06:30.222Z,10.20
2018-11-10T09:08:58.441Z,10.20
2018-11-10T09:11:26.668Z,10.20
2018-11-10T09:13:54.789Z,10.20
2018-11-10T09:16:24.268Z,10.20
2018-11-10T09:18:53.062Z,10.20
2018-11-10T09:21:21.849Z,10.30
2018-11-10T09:23:49.836Z,10.20
2018-11-10T09:26:18.298Z,10.20
2018-11-10T09:28:46.502Z,10.20
2018-11-10T09:31:14.694Z,10.20
2018-11-10T09:33:42.906Z,10.20
2018-11-10T09:36:11.006Z,10.10
2018-11-10T09:38:40.034Z,10.10
2018-11-10T09:41:09.341Z,10.10
2018-11-10T09:43:37.505Z,10.10
2018-11-10T09:46:06.094Z,10.20
2018-11-10T09:48:36.141Z,10.20
2018-11-10T09:51:05.267Z,10.10
2018-11-10T09:53:33.949Z,10.10
2018-11-10T09:56:02.534Z,10.10
2018-11-10T09:58:31.189Z,10.10
2018-11-10T10:00:59.754Z,10.10
2018-11-10T10:03:27.909Z,10.20
2018-11-10T10:05:56.063Z,10.20
2018-11-10T10:08:24.553Z,10.30
2018-11-10T10:10:53.873Z,10.30
2018-11-10T10:13:23.566Z,10.40
2018-11-10T10:15:52.068Z,10.40
2018-11-10T10:18:20.506Z,10.50
2018-11-10T10:20:49.625Z,10.50
2018-11-10T10:23:18.511Z,10.60
2018-11-10T10:25:47.426Z,10.60
2018-11-10T10:28:17.865Z,10.70
2018-11-10T10:30:46.008Z,10.80
2018-11-10T10:33:14.241Z,10.70
2018-11-10T10:35:42.630Z,10.80
2018-11-10T10:38:10.991Z,10.80
2018-11-10T10:40:39.521Z,10.90
2018-11-10T10:43:07.852Z,11.00
2018-11-10T10:45:35.880Z,11.00
2018-11-10T10:48:04.117Z,11.10
2018-11-10T10:50:32.529Z,11.20
2018-11-10T10:53:01.277Z,11.30
2018-11-10T10:55:29.358Z,11.30
2018-11-10T10:57:57.671Z,11.30
2018-11-10T11:00:31.338Z,11.30
2018-11-10T11:03:05.350Z,11.40
2018-11-10T11:05:39.835Z,11.40
2018-11-10T11:08:09.594Z,11.50
2018-11-10T11:10:37.854Z,11.60
2018-11-10T11:13:06.478Z,11.70
2018-11-10T11:15:34.763Z,11.80
2018-11-10T11:18:02.854Z,11.90
2018-11-10T11:20:31.658Z,12.00
2018-11-10T11:23:00.579Z,12.00
2018-11-10T11:25:28.684Z,12.00
2018-11-10T11:27:57.533Z,12.10
2018-11-10T11:30:25.741Z,12.20
2018-11-10T11:32:53.919Z,12.30
2018-11-10T11:35:22.604Z,12.30
2018-11-10T11:37:51.433Z,12.40
2018-11-10T11:40:20.379Z,12.40
2018-11-10T11:42:48.571Z,12.40
2018-11-10T11:45:16.725Z,12.40
2018-11-10T11:47:44.925Z,12.40
2018-11-10T11:50:14.458Z,12.40
2018-11-10T11:52:43.509Z,12.40
2018-11-10T11:55:12.572Z,12.40
2018-11-10T11:57:41.048Z,12.40
2018-11-10T12:00:11.218Z,12.40
2018-11-10T12:02:39.796Z,12.50
2018-11-10T12:05:09.391Z,12.60
2018-11-10T12:07:38.458Z,12.70
2018-11-10T12:10:07.553Z,12.70
2018-11-10T12:12:35.760Z,12.70
2018-11-10T12:15:03.946Z,12.70
2018-11-10T12:17:32.025Z,12.70
2018-11-10T12:20:00.946Z,12.60
2018-11-10T12:22:29.244Z,12.60
2018-11-10T12:24:58.090Z,12.60
2018-11-10T12:27:28.189Z,12.70
2018-11-10T12:29:56.332Z,12.60
2018-11-10T12:32:25.153Z,12.60
2018-11-10T12:34:54.341Z,12.50
2018-11-10T12:37:23.461Z,12.40
2018-11-10T12:39:52.389Z,12.20
2018-11-10T12:42:22.840Z,12.20
2018-11-10T12:44:51.158Z,12.10
2018-11-10T12:47:20.161Z,12.00
2018-11-10T12:49:48.390Z,11.90
2018-11-10T12:52:16.622Z,11.90
2018-11-10T12:54:45.952Z,11.80
2018-11-10T12:57:15.589Z,11.80
2018-11-10T12:59:44.014Z,11.70
2018-11-10T13:02:13.168Z,11.70
2018-11-10T13:04:41.341Z,11.70
2018-11-10T13:07:09.570Z,11.60
2018-11-10T13:09:39.122Z,11.60
2018-11-10T13:12:09.116Z,11.60
2018-11-10T13:14:37.595Z,11.60
2018-11-10T13:17:06.091Z,11.60
2018-11-10T13:19:34.290Z,11.50
2018-11-10T13:22:02.705Z,11.50
2018-11-10T13:24:31.026Z,12.00
2018-11-10T13:26:59.619Z,11.50
2018-11-10T13:29:28.182Z,11.40
2018-11-10T13:31:56.327Z,11.40
2018-11-10T13:34:25.041Z,11.40
2018-11-10T13:36:54.642Z,11.40
2018-11-10T13:39:22.871Z,11.30
2018-11-10T13:41:51.462Z,11.30
2018-11-10T13:44:20.318Z,11.30
2018-11-10T13:46:49.596Z,11.30
2018-11-10T13:49:17.943Z,11.30
2018-11-10T13:51:46.845Z,11.30
2018-11-10T13:54:16.470Z,11.30
2018-11-10T13:56:44.725Z,11.30
2018-11-10T13:59:13.580Z,11.20
2018-11-10T14:01:42.374Z,11.20
2018-11-10T14:04:11.550Z,11.20
2018-11-10T14:06:39.726Z,11.10
2018-11-10T14:09:09.637Z,11.10
2018-11-10T14:11:37.882Z,11.10
2018-11-10T14:14:07.946Z,11.10
2018-11-10T14:16:36.150Z,11.10
2018-11-10T14:19:04.970Z,11.00
2018-11-10T14:21:33.745Z,11.00
2018-11-10T14:24:02.775Z,11.00
2018-11-10T14:26:31.523Z,11.00
2018-11-10T14:28:59.857Z,11.00
2018-11-10T14:31:27.992Z,11.00
2018-11-10T14:33:56.722Z,11.00
2018-11-10T14:36:24.913Z,11.00
2018-11-10T14:38:53.642Z,11.00
2018-11-10T14:41:22.057Z,11.00
2018-11-10T14:43:50.149Z,11.00
2018-11-10T14:46:18.289Z,11.00
2018-11-10T14:48:47.042Z,11.00
2018-11-10T14:51:17.078Z,10.90
2018-11-10T14:53:45.659Z,11.00
2018-11-10T14:56:14.105Z,10.90
2018-11-10T14:58:42.645Z,10.90
2018-11-10T15:01:11.001Z,10.90
2018-11-10T15:03:39.909Z,10.80
2018-11-10T15:06:08.084Z,10.80
2018-11-10T15:08:36.225Z,10.80
2018-11-10T15:11:05.186Z,10.80
2018-11-10T15:13:34.570Z,10.70
2018-11-10T15:16:03.502Z,10.70
2018-11-10T15:18:32.311Z,10.70
2018-11-10T15:21:01.237Z,10.70
2018-11-10T15:23:30.184Z,10.70
2018-11-10T15:25:59.017Z,10.60
2018-11-10T15:28:27.161Z,10.60
2018-11-10T15:30:55.369Z,10.60
2018-11-10T15:38:17.609Z,10.60
2018-11-10T15:40:45.994Z,10.60
2018-11-10T15:43:14.824Z,10.50
2018-11-10T15:45:43.249Z,10.50
2018-11-10T15:48:12.069Z,10.50
2018-11-10T15:50:41.024Z,10.50
2018-11-10T15:53:09.806Z,10.50
2018-11-10T15:55:38.481Z,10.50
2018-11-10T15:58:07.982Z,10.40
2018-11-10T16:00:36.959Z,10.40
2018-11-10T16:03:05.435Z,10.40
2018-11-10T16:05:33.582Z,10.10
2018-11-10T16:08:01.698Z,10.40
2018-11-10T16:10:31.049Z,10.40
2018-11-10T16:12:59.333Z,10.30
2018-11-10T16:15:27.946Z,10.40
2018-11-10T16:17:56.090Z,10.30
2018-11-10T16:20:25.861Z,10.30
2018-11-10T16:22:53.959Z,10.30
2018-11-10T16:25:22.800Z,10.30
2018-11-10T16:27:50.886Z,10.20
2018-11-10T16:30:19.690Z,10.20
2018-11-10T16:32:48.865Z,10.20
2018-11-10T16:35:17.269Z,10.20
2018-11-10T16:37:45.947Z,10.20
2018-11-10T16:40:16.353Z,10.20
2018-11-10T16:42:45.290Z,10.20
2018-11-10T16:45:15.837Z,10.10
2018-11-10T16:47:44.593Z,10.10
2018-11-10T16:50:13.294Z,10.10
2018-11-10T16:52:43.460Z,10.00
2018-11-10T16:55:11.884Z,10.00
2018-11-10T16:57:40.850Z,10.00
2018-11-10T17:00:12.740Z,10.00
2018-11-10T17:02:41.431Z,10.00
2018-11-10T17:05:10.641Z,10.00
2018-11-10T17:07:39.834Z,10.00
2018-11-10T17:10:11.435Z,10.00
2018-11-10T17:12:39.699Z,9.90
2018-11-10T17:15:08.195Z,9.90
2018-11-10T17:17:36.627Z,9.90
2018-11-10T17:20:06.614Z,9.90
2018-11-10T17:22:36.017Z,9.90
2018-11-10T17:25:05.582Z,9.90
2018-11-10T17:27:33.893Z,9.90
2018-11-10T17:30:02.950Z,9.90
2018-11-10T17:32:31.015Z,9.90
2018-11-10T17:34:59.846Z,9.90
2018-11-10T17:37:28.421Z,9.90
2018-11-10T17:39:56.774Z,9.80
2018-11-10T17:42:24.990Z,9.90
2018-11-10T17:44:53.357Z,9.80
2018-11-10T17:47:22.645Z,9.80
2018-11-10T17:49:51.193Z,9.80
2018-11-10T17:52:20.762Z,9.90
2018-11-10T17:54:49.314Z,9.90
2018-11-10T17:57:18.338Z,9.90
2018-11-10T17:59:47.699Z,9.90
2018-11-10T18:02:16.943Z,9.80
2018-11-10T18:04:45.292Z,9.90
2018-11-10T18:07:14.578Z,9.80
2018-11-10T18:09:42.745Z,9.80
2018-11-10T18:12:11.582Z,9.80
2018-11-10T18:14:39.729Z,9.80
2018-11-10T18:17:07.865Z,9.80
2018-11-10T18:19:37.087Z,9.90
2018-11-10T18:22:06.871Z,9.90
2018-11-10T18:24:35.064Z,9.90
2018-11-10T18:29:47.323Z,9.90
2018-11-10T18:32:15.664Z,9.90
2018-11-10T18:34:44.081Z,9.90
2018-11-10T18:37:12.534Z,9.90
2018-11-10T18:39:41.186Z,9.90
2018-11-10T18:42:09.945Z,9.90
2018-11-10T18:44:38.206Z,9.90
2018-11-10T18:47:06.706Z,9.90
2018-11-10T18:50:37.812Z,9.90
2018-11-10T18:53:05.999Z,9.90
2018-11-10T18:55:34.137Z,9.90
2018-11-10T18:58:02.513Z,9.90
2018-11-10T19:00:30.861Z,9.90
2018-11-10T19:02:59.329Z,9.90
2018-11-10T19:05:27.705Z,9.90
2018-11-10T19:07:55.838Z,10.00
2018-11-10T19:10:23.986Z,10.00
2018-11-10T19:12:52.475Z,10.00
2018-11-10T19:15:21.614Z,10.00
2018-11-10T19:17:51.122Z,10.00
2018-11-10T19:20:20.072Z,10.00
2018-11-10T19:22:48.512Z,10.00
2018-11-10T19:25:16.833Z,10.10
2018-11-10T19:27:45.256Z,10.00
2018-11-10T19:30:15.545Z,10.10
2018-11-10T19:32:45.484Z,10.10
2018-11-10T19:35:14.095Z,10.10
2018-11-10T19:37:42.261Z,10.10
2018-11-10T19:40:12.067Z,10.10
2018-11-10T19:42:41.054Z,10.20
2018-11-10T19:45:10.989Z,10.20
2018-11-10T19:47:40.345Z,10.20
2018-11-10T19:50:09.635Z,10.20
2018-11-10T19:52:37.657Z,10.20
2018-11-10T19:55:09.867Z,10.30
2018-11-10T19:57:38.893Z,10.30
2018-11-10T20:00:11.269Z,10.30
2018-11-10T20:02:39.624Z,10.30
2018-11-10T20:05:08.181Z,10.30
2018-11-10T20:07:37.084Z,10.40
2018-11-10T20:10:05.765Z,10.40
2018-11-10T20:12:33.962Z,10.40
2018-11-10T20:15:04.306Z,10.40
2018-11-10T20:17:33.055Z,10.50
2018-11-10T20:20:01.137Z,10.40
2018-11-10T20:22:29.233Z,10.50
2018-11-10T20:24:57.458Z,10.50
2018-11-10T20:27:26.374Z,10.50
2018-11-10T20:29:54.543Z,10.50
2018-11-10T20:32:22.654Z,10.60
2018-11-10T20:34:50.827Z,10.60
2018-11-10T20:37:19.014Z,10.60
2018-11-10T20:39:47.145Z,10.60
2018-11-10T20:42:15.630Z,10.60
2018-11-10T20:44:43.797Z,10.60
2018-11-10T20:47:12.523Z,10.70
2018-11-10T20:49:40.710Z,10.70
2018-11-10T20:52:09.119Z,10.70
2018-11-10T20:54:37.801Z,10.80
2018-11-10T20:57:05.873Z,10.80
2018-11-10T20:59:35.482Z,10.80
2018-11-10T21:02:05.051Z,10.80
2018-11-10T21:04:33.182Z,10.90
2018-11-10T21:07:01.819Z,10.80
2018-11-10T21:09:30.894Z,10.90
2018-11-10T21:12:00.771Z,10.90
2018-11-10T21:14:28.985Z,10.90
2018-11-10T21:16:57.461Z,10.90
2018-11-10T21:19:26.444Z,10.90
2018-11-10T21:21:55.181Z,11.00
2018-11-10T21:24:23.366Z,11.00
2018-11-10T21:26:52.402Z,11.00
2018-11-10T21:29:20.639Z,11.00
2018-11-10T21:31:49.659Z,11.00
2018-11-10T21:34:18.349Z,11.00
2018-11-10T21:36:46.673Z,11.10
2018-11-10T21:39:14.788Z,11.00
2018-11-10T21:41:43.156Z,11.10
2018-11-10T21:44:11.402Z,11.10
2018-11-10T21:46:40.049Z,11.10
2018-11-10T21:49:09.505Z,11.10
2018-11-10T21:51:38.121Z,11.10
2018-11-10T21:54:07.253Z,11.10
2018-11-10T21:56:35.428Z,11.10
2018-11-10T21:59:03.873Z,11.10
2018-11-10T22:01:32.074Z,11.10
2018-11-10T22:04:00.466Z,11.10
2018-11-10T22:06:29.414Z,11.10
2018-11-10T22:08:58.504Z,11.00
2018-11-10T22:11:27.319Z,11.00
2018-11-10T22:13:55.934Z,11.00
2018-11-10T22:16:24.196Z,10.90
2018-11-10T22:18:52.518Z,11.00
2018-11-10T22:21:21.367Z,10.90
2018-11-10T22:23:49.742Z,10.90
2018-11-10T22:26:22.719Z,10.90
2018-11-10T22:28:51.422Z,10.90
2018-11-10T22:31:20.239Z,10.90
2018-11-10T22:33:48.571Z,10.90
2018-11-10T22:36:19.968Z,10.90
2018-11-10T22:38:48.061Z,10.90
2018-11-10T22:41:17.031Z,10.90
2018-11-10T22:43:46.082Z,10.90
2018-11-10T22:46:15.337Z,10.90
2018-11-10T22:48:43.547Z,11.00
2018-11-10T22:51:12.859Z,11.00
2018-11-10T22:53:41.552Z,11.00
2018-11-10T22:56:10.399Z,10.90
2018-11-10T22:58:38.637Z,10.90
2018-11-10T23:01:08.706Z,11.00
2018-11-10T23:03:37.459Z,11.00
2018-11-10T23:06:05.997Z,11.00
2018-11-10T23:08:34.187Z,11.00
2018-11-10T23:11:02.390Z,11.00
2018-11-10T23:13:30.605Z,11.00
2018-11-10T23:15:58.717Z,11.00
2018-11-10T23:18:27.182Z,11.00
2018-11-10T23:20:55.754Z,11.10
2018-11-10T23:23:24.495Z,11.00
2018-11-10T23:25:52.607Z,11.00
2018-11-10T23:28:20.993Z,11.00
2018-11-10T23:30:50.105Z,11.00
2018-11-10T23:33:19.079Z,11.00
2018-11-10T23:35:47.134Z,11.00
2018-11-10T23:38:16.570Z,11.00
2018-11-10T23:40:45.045Z,11.00
2018-11-10T23:43:13.782Z,11.10
2018-11-10T23:45:42.634Z,11.10
2018-11-10T23:48:11.213Z,11.20
2018-11-10T23:50:40.689Z,11.20
2018-11-10T23:53:08.970Z,11.20
2018-11-10T23:55:37.187Z,11.20
2018-11-10T23:58:05.760Z,11.10
